Time;durP1;ratioP1;P1;durP2;ratioP2;P2;SDS_P1;SDS_P2;PMS_P1;PMS_P2;Temp;Humidity;BMP_temperature;BMP_pressure;BME280_temperature;BME280_humidity;BME280_pressure;Samples;Min_cycle;Max_cycle;Signal;HPM_P1;HPM_P2
2022/04/09 00:00:21;;;;;;;17.52;8.60;;;;;;;6.60;75.43;98567.77;1753873;81;25737;-77
2022/04/09 00:02:50;;;;;;;13.03;7.40;;;;;;;6.62;75.41;98560.91;1747859;80;25885;-78
2022/04/09 00:05:17;;;;;;;15.25;8.58;;;;;;;6.64;75.48;98558.34;1754480;81;27488;-79
2022/04/09 00:07:43;;;;;;;17.25;7.95;;;;;;;6.65;75.50;98549.31;1753469;81;25943;-78
2022/04/09 00:10:11;;;;;;;13.93;7.12;;;;;;;6.65;75.55;98544.53;1756162;80;25772;-78
2022/04/09 00:12:39;;;;;;;14.50;7.55;;;;;;;6.64;75.62;98539.72;1754189;80;26427;-78
2022/04/09 00:15:06;;;;;;;13.53;7.15;;;;;;;6.63;75.59;98539.94;1753761;81;26615;-78
2022/04/09 00:17:42;;;;;;;12.20;6.55;;;;;;;6.65;75.59;98537.88;1755007;81;28259;-78
2022/04/09 00:20:10;;;;;;;15.78;7.28;;;;;;;6.66;75.66;98530.19;1752804;81;25735;-77
2022/04/09 00:22:40;;;;;;;15.30;6.83;;;;;;;6.65;75.75;98525.38;1755782;80;25941;-78
2022/04/09 00:25:13;;;;;;;13.48;6.95;;;;;;;6.66;75.74;98520.38;1754272;81;25821;-78
2022/04/09 00:27:40;;;;;;;13.22;7.05;;;;;;;6.67;75.78;98519.86;1753694;81;26012;-78
2022/04/09 00:30:09;;;;;;;12.78;6.22;;;;;;;6.66;75.88;98527.53;1743674;81;28382;-78
2022/04/09 00:32:36;;;;;;;16.02;6.87;;;;;;;6.63;75.91;98523.44;1738533;81;26532;-77
2022/04/09 00:35:03;;;;;;;10.13;5.47;;;;;;;6.62;75.90;98528.98;1743328;81;25929;-77
2022/04/09 00:37:32;;;;;;;14.28;7.47;;;;;;;6.60;75.97;98525.72;1745756;81;26080;-78
2022/04/09 00:39:58;;;;;;;11.65;6.33;;;;;;;6.60;76.19;98524.39;1745746;81;26121;-78
2022/04/09 00:42:25;;;;;;;9.18;5.05;;;;;;;6.60;76.28;98522.55;1733025;81;27536;-78
2022/04/09 00:44:51;;;;;;;14.83;6.55;;;;;;;6.60;76.29;98523.88;1733701;81;25842;-78
2022/04/09 00:47:18;;;;;;;22.87;8.35;;;;;;;6.61;76.33;98532.15;1738205;81;25825;-78
2022/04/09 00:49:44;;;;;;;19.42;8.43;;;;;;;6.62;76.42;98536.45;1739169;81;26215;-78
2022/04/09 00:52:12;;;;;;;16.90;7.08;;;;;;;6.63;76.53;98539.40;1754232;80;25891;-77
2022/04/09 00:54:42;;;;;;;17.80;7.12;;;;;;;6.62;76.51;98531.13;1733783;81;28324;-78
2022/04/09 00:57:10;;;;;;;13.83;6.00;;;;;;;6.62;76.54;98527.66;1741784;81;26439;-78
2022/04/09 00:59:42;;;;;;;16.02;7.25;;;;;;;6.59;76.59;98533.38;1753143;81;25976;-78
2022/04/09 01:02:11;;;;;;;16.02;6.80;;;;;;;6.59;76.71;98533.38;1741380;80;26373;-78
2022/04/09 01:04:42;;;;;;;14.05;6.67;;;;;;;6.57;76.78;98536.77;1730561;81;25742;-79
2022/04/09 01:07:09;;;;;;;12.37;5.75;;;;;;;6.55;76.79;98538.32;1755964;81;27450;-78
2022/04/09 01:09:35;;;;;;;10.68;5.50;;;;;;;6.53;76.88;98523.59;1746671;81;25927;-78
2022/04/09 01:12:03;;;;;;;11.12;5.50;;;;;;;6.51;76.85;98529.64;1756365;80;25803;-79
2022/04/09 01:14:34;;;;;;;10.10;5.62;;;;;;;6.50;76.90;98526.16;1756957;81;25527;-78
2022/04/09 01:17:00;;;;;;;11.18;5.05;;;;;;;6.50;77.08;98532.80;1746142;81;27074;-78
2022/04/09 01:19:27;;;;;;;10.38;5.50;;;;;;;6.46;77.06;98531.59;1756264;81;27527;-78
2022/04/09 01:22:00;;;;;;;8.08;4.70;;;;;;;6.45;77.22;98532.64;1744320;81;25742;-78
2022/04/09 01:24:27;;;;;;;7.55;4.65;;;;;;;6.43;77.19;98536.02;1739910;81;26458;-77
2022/04/09 01:26:54;;;;;;;8.33;5.60;;;;;;;6.43;77.40;98533.36;1741809;81;25808;-78
2022/04/09 01:29:25;;;;;;;8.75;5.20;;;;;;;6.40;77.43;98520.48;1734351;81;25796;-78
2022/04/09 01:31:51;;;;;;;9.60;5.60;;;;;;;6.36;77.50;98517.11;1755763;81;28475;-78
2022/04/09 01:34:17;;;;;;;9.25;4.95;;;;;;;6.34;77.71;98523.16;1753533;80;25805;-78
2022/04/09 01:36:44;;;;;;;11.00;5.08;;;;;;;6.32;77.69;98526.54;1750778;81;25968;-78
2022/04/09 01:39:12;;;;;;;12.43;5.42;;;;;;;6.29;77.87;98522.99;1725730;81;25872;-78
2022/04/09 01:41:39;;;;;;;12.18;5.28;;;;;;;6.28;78.07;98522.17;1755565;81;25949;-78
2022/04/09 01:44:06;;;;;;;9.58;5.90;;;;;;;6.29;78.21;98519.00;1755984;80;28071;-78
2022/04/09 01:46:33;;;;;;;12.37;6.40;;;;;;;6.31;78.29;98523.06;1753495;81;25795;-79
2022/04/09 01:48:59;;;;;;;9.38;5.50;;;;;;;6.34;78.45;98527.14;1753768;81;25788;-78
2022/04/09 01:51:25;;;;;;;10.48;6.33;;;;;;;6.32;78.34;98526.03;1754411;81;25728;-79
2022/04/09 01:53:52;;;;;;;10.90;6.10;;;;;;;6.30;78.43;98528.59;1726694;81;26576;-78
2022/04/09 01:56:20;;;;;;;9.55;6.65;;;;;;;6.30;78.59;98526.77;1753907;81;27469;-77
2022/04/09 01:58:46;;;;;;;13.53;6.75;;;;;;;6.30;78.54;98526.77;1755547;81;26108;-77
2022/04/09 02:01:17;;;;;;;7.92;5.58;;;;;;;6.32;78.61;98526.54;1754183;81;25844;-78
2022/04/09 02:03:44;;;;;;;9.20;5.95;;;;;;;6.32;78.77;98516.73;1755460;80;25968;-78
2022/04/09 02:06:11;;;;;;;10.93;5.58;;;;;;;6.34;78.94;98523.16;1754520;81;25973;-78
2022/04/09 02:08:38;;;;;;;11.65;6.58;;;;;;;6.30;79.01;98520.11;1755664;81;27636;-78
2022/04/09 02:11:04;;;;;;;10.38;6.17;;;;;;;6.29;78.97;98519.80;1754213;81;25917;-78
2022/04/09 02:13:32;;;;;;;11.80;6.55;;;;;;;6.31;79.25;98512.96;1747204;80;25933;-78
2022/04/09 02:15:59;;;;;;;11.35;6.10;;;;;;;6.31;79.27;98517.74;1748088;81;25965;-78
2022/04/09 02:18:28;;;;;;;9.08;6.28;;;;;;;6.32;79.26;98521.22;1753597;81;25909;-78
2022/04/09 02:20:55;;;;;;;9.73;5.95;;;;;;;6.32;79.32;98518.56;1754376;81;28288;-78
2022/04/09 02:23:21;;;;;;;11.05;6.60;;;;;;;6.30;79.42;98513.47;1754975;80;25816;-79
2022/04/09 02:25:47;;;;;;;13.53;7.25;;;;;;;6.33;79.56;98510.37;1755686;81;25850;-77
2022/04/09 02:28:14;;;;;;;16.12;7.75;;;;;;;6.34;79.51;98510.69;1753505;81;26519;-78
2022/04/09 02:30:40;;;;;;;12.30;7.40;;;;;;;6.36;79.64;98509.14;1754695;81;25993;-78
2022/04/09 02:33:08;;;;;;;8.78;5.65;;;;;;;6.36;79.63;98513.13;1753012;80;28573;-77
2022/04/09 02:35:36;;;;;;;8.93;6.10;;;;;;;6.37;79.78;98504.14;1754131;81;25948;-78
2022/04/09 02:38:02;;;;;;;8.75;5.65;;;;;;;6.39;79.82;98504.23;1754317;81;25814;-78
2022/04/09 02:40:30;;;;;;;11.60;6.85;;;;;;;6.43;79.93;98513.42;1753515;81;25836;-78
2022/04/09 02:42:57;;;;;;;11.78;7.37;;;;;;;6.45;79.99;98522.51;1754730;80;25791;-79
2022/04/09 02:45:24;;;;;;;11.22;6.47;;;;;;;6.45;79.84;98520.67;1747133;81;27440;-78
2022/04/09 02:47:51;;;;;;;10.48;6.62;;;;;;;6.47;79.96;98517.80;1757509;81;26520;-78
2022/04/09 02:50:22;;;;;;;11.53;7.78;;;;;;;6.45;79.84;98522.00;1726262;81;25590;-78
2022/04/09 02:52:48;;;;;;;16.05;7.33;;;;;;;6.48;79.92;98520.77;1755684;80;26241;-78
2022/04/09 02:55:15;;;;;;;11.95;6.50;;;;;;;6.47;79.88;98524.44;1756294;81;25739;-78
2022/04/09 02:57:41;;;;;;;9.85;6.78;;;;;;;6.48;80.01;98531.41;1753671;80;28266;-78
2022/04/09 03:00:12;;;;;;;9.85;7.35;;;;;;;6.48;80.07;98531.41;1753962;81;25752;-78
2022/04/09 03:02:40;;;;;;;12.07;6.87;;;;;;;6.45;79.92;98526.50;1754487;80;25881;-78
2022/04/09 03:05:10;;;;;;;10.35;7.03;;;;;;;6.43;80.02;98528.05;1755152;81;25450;-78
2022/04/09 03:07:37;;;;;;;8.33;6.67;;;;;;;6.42;80.13;98541.02;1756778;81;25834;-79
2022/04/09 03:10:04;;;;;;;10.18;6.83;;;;;;;6.43;80.19;98537.35;1754015;81;27524;-78
2022/04/09 03:12:30;;;;;;;13.35;7.03;;;;;;;6.43;80.19;98545.33;1754584;80;26349;-77
2022/04/09 03:14:57;;;;;;;12.28;7.30;;;;;;;6.44;80.26;98542.13;1753802;81;25901;-78
2022/04/09 03:17:23;;;;;;;11.78;7.28;;;;;;;6.46;80.28;98542.77;1755009;81;26424;-77
2022/04/09 03:19:49;;;;;;;10.35;7.22;;;;;;;6.48;80.38;98546.03;1756651;81;25829;-78
2022/04/09 03:22:15;;;;;;;13.65;8.40;;;;;;;6.47;80.41;98549.20;1754921;80;28283;-78
2022/04/09 03:24:42;;;;;;;12.65;8.15;;;;;;;6.45;80.46;98559.23;1753476;81;25821;-78
2022/04/09 03:27:10;;;;;;;14.65;9.48;;;;;;;6.44;80.60;98562.08;1721064;81;26538;-78
2022/04/09 03:29:38;;;;;;;8.88;6.97;;;;;;;6.42;80.64;98566.80;1748170;81;26284;-79
2022/04/09 03:32:06;;;;;;;10.63;7.15;;;;;;;6.43;80.84;98556.47;1751401;80;25740;-78
2022/04/09 03:34:34;;;;;;;10.20;6.87;;;;;;;6.41;80.98;98556.69;1755888;81;27541;-78
2022/04/09 03:37:01;;;;;;;7.83;6.60;;;;;;;6.43;81.03;98559.13;1749180;81;25794;-78
2022/04/09 03:39:29;;;;;;;7.70;6.30;;;;;;;6.42;81.31;98560.97;1742912;81;26082;-78
2022/04/09 03:41:56;;;;;;;9.83;7.50;;;;;;;6.43;81.42;98560.47;1734424;81;26694;-78
2022/04/09 03:44:23;;;;;;;8.73;6.97;;;;;;;6.39;81.46;98561.41;1746000;81;25830;-78
2022/04/09 03:46:59;;;;;;;10.50;7.20;;;;;;;6.39;81.69;98556.09;1729681;81;27451;-79
2022/04/09 03:49:26;;;;;;;7.50;6.35;;;;;;;6.40;81.85;98562.20;1753736;81;25863;-78
2022/04/09 03:51:52;;;;;;;11.63;6.97;;;;;;;6.37;81.94;98560.80;1729486;81;25865;-79
2022/04/09 03:54:20;;;;;;;12.73;7.35;;;;;;;6.34;82.06;98551.90;1753755;80;26239;-78
2022/04/09 03:56:48;;;;;;;9.48;7.05;;;;;;;6.33;82.25;98559.56;1752591;81;25871;-78
2022/04/09 03:59:15;;;;;;;9.80;7.40;;;;;;;6.33;82.37;98558.77;1749630;81;27445;-78
2022/04/09 04:01:46;;;;;;;10.48;7.30;;;;;;;6.33;82.43;98565.41;1751904;81;25969;-78
2022/04/09 04:04:11;;;;;;;9.93;7.60;;;;;;;6.32;82.69;98565.09;1752416;80;25906;-78
2022/04/09 04:06:38;;;;;;;9.88;7.53;;;;;;;6.32;82.86;98567.25;1751844;81;25916;-78
2022/04/09 04:09:06;;;;;;;12.30;8.80;;;;;;;6.29;82.84;98576.16;1750837;81;25294;-78
2022/04/09 04:11:34;;;;;;;11.18;8.40;;;;;;;6.25;83.15;98579.73;1754255;81;28268;-78
2022/04/09 04:14:01;;;;;;;10.03;8.08;;;;;;;6.24;83.34;98590.87;1747303;80;25949;-78
2022/04/09 04:16:28;;;;;;;14.65;10.28;;;;;;;6.24;83.36;98590.08;1748952;81;25302;-78
2022/04/09 04:18:54;;;;;;;10.85;8.70;;;;;;;6.22;83.58;98600.10;1753002;81;26381;-78
2022/04/09 04:21:21;;;;;;;11.90;8.45;;;;;;;6.23;83.62;98600.39;1753821;81;25841;-78
2022/04/09 04:23:49;;;;;;;11.60;8.28;;;;;;;6.24;83.89;98600.17;1752456;81;27485;-78
2022/04/09 04:26:17;;;;;;;11.57;8.30;;;;;;;6.21;84.01;98599.78;1750677;81;25850;-79
2022/04/09 04:28:48;;;;;;;12.80;9.10;;;;;;;6.20;84.08;98608.27;1756623;81;26217;-78
2022/04/09 04:31:12;;;;;;;14.07;8.88;;;;;;;6.25;84.28;98604.98;1752024;81;26380;-78
2022/04/09 04:33:39;;;;;;;13.28;10.80;;;;;;;6.27;84.37;98611.41;1751191;80;25905;-79
2022/04/09 04:36:06;;;;;;;12.78;9.25;;;;;;;6.29;84.37;98617.38;1741664;81;27681;-78
2022/04/09 04:38:34;;;;;;;19.10;13.43;;;;;;;6.30;84.43;98614.50;1739824;81;25891;-78
2022/04/09 04:41:02;;;;;;;19.80;14.00;;;;;;;6.31;84.47;98615.33;1747670;81;25912;-78
2022/04/09 04:43:29;;;;;;;15.80;11.28;;;;;;;6.33;84.70;98615.93;1741226;80;26122;-78
2022/04/09 04:45:57;;;;;;;16.70;11.18;;;;;;;6.34;84.63;98612.23;1742231;81;25838;-78
2022/04/09 04:48:23;;;;;;;15.70;10.23;;;;;;;6.35;84.79;98613.34;1745082;81;27443;-78
2022/04/09 04:50:50;;;;;;;13.30;9.90;;;;;;;6.34;84.82;98609.06;1747605;81;25800;-79
2022/04/09 04:53:17;;;;;;;14.63;10.90;;;;;;;6.36;84.79;98611.00;1725251;81;25914;-79
2022/04/09 04:55:45;;;;;;;17.75;12.75;;;;;;;6.38;84.82;98606.80;1747752;81;26418;-78
2022/04/09 04:58:11;;;;;;;16.35;11.18;;;;;;;6.41;84.97;98608.55;1747045;81;25763;-79
2022/04/09 05:00:46;;;;;;;17.23;11.90;;;;;;;6.43;85.12;98605.17;1738686;81;27471;-79
2022/04/09 05:03:15;;;;;;;17.12;11.20;;;;;;;6.46;84.99;98607.92;1746078;80;25933;-78
2022/04/09 05:05:48;;;;;;;17.37;11.22;;;;;;;6.47;85.01;98605.05;1737127;81;25357;-79
2022/04/09 05:08:16;;;;;;;18.57;11.80;;;;;;;6.50;84.99;98609.94;1748341;81;25825;-78
2022/04/09 05:10:43;;;;;;;17.75;11.85;;;;;;;6.52;85.07;98615.86;1748520;81;25888;-78
2022/04/09 05:13:10;;;;;;;15.20;11.12;;;;;;;6.54;84.93;98623.14;1726829;81;27491;-78
2022/04/09 05:15:37;;;;;;;17.23;12.68;;;;;;;6.58;84.96;98628.34;1749311;81;25878;-79
2022/04/09 05:18:04;;;;;;;16.20;11.57;;;;;;;6.61;84.99;98621.27;1750648;81;25909;-79
2022/04/09 05:20:31;;;;;;;14.40;10.32;;;;;;;6.63;84.87;98619.20;1750685;81;25948;-78
2022/04/09 05:22:59;;;;;;;15.55;11.38;;;;;;;6.65;84.78;98613.16;1751445;80;25909;-79
2022/04/09 05:25:26;;;;;;;19.30;11.65;;;;;;;6.68;84.77;98618.08;1742689;81;27457;-79
2022/04/09 05:27:54;;;;;;;19.32;12.18;;;;;;;6.71;84.84;98615.52;1751067;81;25791;-78
2022/04/09 05:30:25;;;;;;;;;;;;;;;6.73;84.88;98628.09;1747235;81;25984;-78
2022/04/09 05:32:51;;;;;;;19.42;11.57;;;;;;;6.74;85.10;98629.20;1753068;80;25889;-78
2022/04/09 05:35:17;;;;;;;17.07;13.43;;;;;;;6.73;85.08;98648.05;1753750;81;25720;-79
2022/04/09 05:37:48;;;;;;;20.37;12.15;;;;;;;6.72;85.05;98653.05;1753559;81;27442;-79
2022/04/09 05:40:17;;;;;;;16.15;11.70;;;;;;;6.71;85.09;98646.94;1752237;81;25921;-79
2022/04/09 05:42:44;;;;;;;20.17;14.35;;;;;;;6.71;85.04;98654.09;1753094;80;25739;-79
2022/04/09 05:45:12;;;;;;;22.15;13.80;;;;;;;6.73;85.13;98651.53;1722869;81;25798;-78
2022/04/09 05:47:43;;;;;;;20.00;14.20;;;;;;;6.76;85.25;98656.92;1726844;81;25963;-78
2022/04/09 05:50:12;;;;;;;23.00;14.47;;;;;;;6.79;85.17;98652.02;1695434;81;28328;-78
2022/04/09 05:52:39;;;;;;;17.35;12.63;;;;;;;6.80;85.32;98652.84;1735309;80;25791;-79
2022/04/09 05:55:06;;;;;;;21.30;14.15;;;;;;;6.79;85.23;98661.33;1757690;81;25818;-79
2022/04/09 05:57:33;;;;;;;19.65;12.82;;;;;;;6.79;85.24;98661.33;1754436;81;26263;-78
2022/04/09 06:00:06;;;;;;;18.98;12.70;;;;;;;6.78;85.12;98669.00;1754162;81;25813;-78
2022/04/09 06:02:37;;;;;;;20.97;13.80;;;;;;;6.77;85.06;98662.56;1752082;80;27460;-79
2022/04/09 06:05:04;;;;;;;17.10;12.43;;;;;;;6.77;85.21;98666.55;1753697;81;26593;-78
2022/04/09 06:07:31;;;;;;;16.27;11.88;;;;;;;6.79;85.25;98664.50;1753666;81;26476;-78
2022/04/09 06:09:59;;;;;;;21.87;13.93;;;;;;;6.80;84.92;98676.25;1754975;81;26436;-80
2022/04/09 06:12:25;;;;;;;20.82;13.80;;;;;;;6.79;84.76;98687.12;1743577;80;25893;-79
2022/04/09 06:14:53;;;;;;;17.12;12.13;;;;;;;6.80;84.96;98681.58;1753071;81;27435;-78
2022/04/09 06:17:22;;;;;;;16.30;11.78;;;;;;;6.80;84.72;98680.78;1753932;81;25844;-79
2022/04/09 06:19:48;;;;;;;19.07;12.43;;;;;;;6.81;84.38;98685.89;1727626;81;25796;-79
2022/04/09 06:22:15;;;;;;;17.32;12.33;;;;;;;6.83;84.49;98687.00;1754539;80;26764;-78
2022/04/09 06:24:41;;;;;;;18.77;11.97;;;;;;;6.84;84.32;98682.79;1755761;81;25788;-79
2022/04/09 06:27:13;;;;;;;20.37;13.08;;;;;;;6.87;84.41;98690.37;1726061;81;26893;-79
2022/04/09 06:29:39;;;;;;;19.23;14.60;;;;;;;6.89;84.06;98693.63;1725721;81;25890;-79
2022/04/09 06:32:06;;;;;;;18.95;13.18;;;;;;;6.90;84.10;98685.97;1748743;81;26422;-79
2022/04/09 06:34:34;;;;;;;21.93;13.55;;;;;;;6.93;84.06;98683.37;1753395;81;25814;-79
2022/04/09 06:37:02;;;;;;;27.65;14.87;;;;;;;6.97;84.02;98688.61;1753581;81;26454;-79
2022/04/09 06:39:28;;;;;;;24.05;15.43;;;;;;;7.00;84.17;98695.66;1754806;80;27680;-78
2022/04/09 06:41:54;;;;;;;17.37;12.30;;;;;;;7.07;83.98;98700.95;1754812;81;26165;-78
2022/04/09 06:44:24;;;;;;;18.40;10.98;;;;;;;7.11;83.43;98695.51;1751732;81;25993;-78
2022/04/09 06:46:52;;;;;;;15.60;10.18;;;;;;;7.20;83.60;98692.09;1754294;81;25819;-78
2022/04/09 06:49:26;;;;;;;25.75;15.40;;;;;;;7.23;82.91;98690.36;1751977;81;25747;-79
2022/04/09 06:51:54;;;;;;;15.75;10.98;;;;;;;7.26;83.00;98691.25;1753419;81;27517;-77
2022/04/09 06:54:31;;;;;;;16.10;11.65;;;;;;;7.30;81.96;98697.78;1751376;81;25989;-79
2022/04/09 06:56:58;;;;;;;18.27;10.90;;;;;;;7.31;82.30;98704.25;1724164;80;25810;-79
2022/04/09 06:59:24;;;;;;;16.12;10.40;;;;;;;7.37;82.47;98706.56;1727838;80;31607;-80
2022/04/09 07:01:51;;;;;;;16.80;10.30;;;;;;;7.42;81.72;98714.20;1746509;81;26135;-79
2022/04/09 07:04:18;;;;;;;17.15;10.18;;;;;;;7.43;80.95;98721.19;1750830;80;28427;-76
2022/04/09 07:06:46;;;;;;;20.75;10.55;;;;;;;7.45;80.56;98731.11;1754681;81;25769;-76
2022/04/09 07:09:13;;;;;;;14.70;10.40;;;;;;;7.47;80.41;98738.88;1758143;80;25753;-76
2022/04/09 07:11:39;;;;;;;16.05;10.23;;;;;;;7.49;80.17;98750.14;1756265;81;26283;-76
2022/04/09 07:14:06;;;;;;;15.80;10.93;;;;;;;7.53;80.39;98751.34;1753841;81;25880;-78
2022/04/09 07:16:32;;;;;;;17.35;10.43;;;;;;;7.55;80.06;98763.43;1756197;81;28340;-77
2022/04/09 07:18:58;;;;;;;13.85;10.55;;;;;;;7.54;79.53;98772.47;1756850;81;25852;-78
2022/04/09 07:21:24;;;;;;;12.98;8.60;;;;;;;7.60;79.99;98772.13;1755682;81;25929;-77
2022/04/09 07:23:50;;;;;;;15.20;8.68;;;;;;;7.65;79.86;98778.47;1720064;83;25996;-77
2022/04/09 07:26:18;;;;;;;13.08;6.72;;;;;;;7.66;77.96;98777.94;1712734;83;25744;-79
2022/04/09 07:28:44;;;;;;;14.40;6.95;;;;;;;7.64;77.57;98779.48;1713129;83;27639;-78
2022/04/09 07:31:10;;;;;;;14.07;9.03;;;;;;;7.67;77.52;98796.91;1689381;84;25783;-78
2022/04/09 07:33:38;;;;;;;16.30;8.70;;;;;;;7.66;76.98;98798.74;1748364;80;25733;-78
2022/04/09 07:36:05;;;;;;;14.60;9.30;;;;;;;7.70;77.46;98800.46;1743984;81;26484;-77
2022/04/09 07:38:32;;;;;;;12.47;7.60;;;;;;;7.72;76.12;98809.06;1729305;81;25815;-77
2022/04/09 07:40:58;;;;;;;12.40;7.35;;;;;;;7.72;76.28;98813.05;1751639;81;28323;-78
2022/04/09 07:43:24;;;;;;;17.27;9.10;;;;;;;7.73;75.75;98810.20;1730337;81;25850;-77
2022/04/09 07:45:50;;;;;;;14.58;8.85;;;;;;;7.74;75.94;98821.15;1736030;81;26469;-78
2022/04/09 07:48:16;;;;;;;16.87;9.35;;;;;;;7.80;76.10;98820.30;1742751;81;25822;-78
2022/04/09 07:50:43;;;;;;;14.07;8.10;;;;;;;7.84;75.06;98830.55;1747835;81;25742;-77
2022/04/09 07:53:11;;;;;;;13.75;8.20;;;;;;;7.86;75.60;98837.31;1726415;81;27434;-78
2022/04/09 07:55:37;;;;;;;14.38;8.45;;;;;;;7.91;75.48;98836.17;1726879;81;25939;-78
2022/04/09 07:58:05;;;;;;;19.23;8.85;;;;;;;7.99;76.21;98843.91;1731212;81;25846;-77
2022/04/09 08:00:32;;;;;;;14.35;7.97;;;;;;;8.04;74.86;98865.95;1729587;81;25773;-78
2022/04/09 08:03:01;;;;;;;12.80;8.00;;;;;;;8.08;74.81;98877.82;1730484;81;25780;-78
2022/04/09 08:05:27;;;;;;;13.62;7.70;;;;;;;8.11;74.71;98881.37;1740101;81;27452;-77
2022/04/09 08:07:53;;;;;;;17.02;7.95;;;;;;;8.14;74.96;98896.45;1729082;81;26470;-78
2022/04/09 08:10:19;;;;;;;16.73;8.60;;;;;;;8.18;74.72;98902.17;1741090;81;25845;-78
2022/04/09 08:12:48;;;;;;;14.55;8.58;;;;;;;8.20;74.90;98908.94;1729072;81;25840;-78
2022/04/09 08:15:14;;;;;;;20.08;9.28;;;;;;;8.16;73.66;98910.91;1729480;81;25743;-77
2022/04/09 08:17:40;;;;;;;25.35;12.60;;;;;;;8.09;73.42;98916.77;1738992;81;28746;-78
2022/04/09 08:20:08;;;;;;;14.83;9.95;;;;;;;8.06;73.37;98927.88;1739193;81;25970;-77
2022/04/09 08:22:35;;;;;;;15.68;9.25;;;;;;;8.11;74.36;98932.87;1735540;81;25926;-78
2022/04/09 08:25:02;;;;;;;20.48;10.85;;;;;;;8.16;73.67;98933.57;1733862;81;26205;-78
2022/04/09 08:27:29;;;;;;;13.60;10.18;;;;;;;8.14;74.13;98935.63;1729532;81;26065;-78
2022/04/09 08:29:55;;;;;;;23.20;12.03;;;;;;;8.18;74.21;98936.84;1742820;81;27468;-78
2022/04/09 08:32:25;;;;;;;15.48;9.70;;;;;;;8.22;74.48;98935.39;1749909;81;26430;-78
2022/04/09 08:34:53;;;;;;;15.40;9.83;;;;;;;8.27;73.81;98938.28;1754285;81;26402;-79
2022/04/09 08:37:19;;;;;;;17.92;11.18;;;;;;;8.33;74.56;98943.59;1740919;81;26218;-78
2022/04/09 08:39:45;;;;;;;23.52;11.33;;;;;;;8.37;73.71;98942.13;1753806;81;25812;-78
2022/04/09 08:42:12;;;;;;;17.27;11.00;;;;;;;8.41;73.63;98952.67;1752425;80;27701;-78
2022/04/09 08:44:38;;;;;;;33.83;17.17;;;;;;;8.49;73.40;98946.25;1730995;81;25843;-77
2022/04/09 08:47:05;;;;;;;43.98;21.42;;;;;;;8.53;73.35;98946.95;1753454;80;26542;-79
2022/04/09 08:49:39;;;;;;;47.50;23.35;;;;;;;8.57;72.33;98952.70;1744190;81;25815;-78
2022/04/09 08:52:08;;;;;;;39.00;25.15;;;;;;;8.56;71.69;98951.05;1753940;80;25852;-78
2022/04/09 08:54:38;;;;;;;48.90;37.95;;;;;;;8.57;71.73;98948.70;1753837;81;27477;-78
2022/04/09 08:57:05;;;;;;;21.52;14.30;;;;;;;8.63;72.17;98951.02;1754267;81;25832;-78
2022/04/09 08:59:31;;;;;;;21.73;14.07;;;;;;;8.69;71.77;98962.99;1754533;81;26573;-78
2022/04/09 09:01:58;;;;;;;19.85;10.88;;;;;;;8.72;71.46;98967.09;1754150;81;25925;-78
2022/04/09 09:04:24;;;;;;;16.45;10.30;;;;;;;8.72;70.60;98972.43;1753097;81;25796;-78
2022/04/09 09:06:51;;;;;;;14.35;9.98;;;;;;;8.72;70.24;98971.09;1753385;81;28230;-78
2022/04/09 09:09:31;;;;;;;13.70;9.00;;;;;;;8.74;69.58;98971.70;1754254;81;25769;-78
2022/04/09 09:12:04;;;;;;;18.02;8.88;;;;;;;8.73;67.93;98975.38;1711375;83;25857;-78
2022/04/09 09:14:33;;;;;;;12.65;8.30;;;;;;;8.78;69.02;98978.23;1695131;83;25757;-77
2022/04/09 09:17:01;;;;;;;13.22;8.18;;;;;;;8.80;67.79;98977.51;1718369;83;25883;-78
2022/04/09 09:19:48;;;;;;;12.63;6.20;;;;;;;8.76;68.06;98979.80;1703980;84;27723;-78
2022/04/09 09:22:15;;;;;;;15.75;7.30;;;;;;;8.80;66.58;98982.84;1753655;80;25659;-78
2022/04/09 09:24:42;;;;;;;10.32;6.80;;;;;;;8.84;66.44;98986.21;1753194;81;25788;-79
2022/04/09 09:27:09;;;;;;;12.03;5.78;;;;;;;8.91;66.17;98989.67;1754529;81;25964;-78
2022/04/09 09:29:36;;;;;;;9.75;5.95;;;;;;;9.00;66.25;98990.23;1754920;81;25869;-78
2022/04/09 09:32:06;;;;;;;11.70;6.37;;;;;;;9.03;64.44;98993.79;1751523;80;27624;-78
2022/04/09 09:34:36;;;;;;;10.23;6.30;;;;;;;9.08;63.83;98996.13;1711287;83;25906;-78
2022/04/09 09:37:03;;;;;;;11.48;6.97;;;;;;;9.11;63.84;98995.68;1710847;83;26310;-78
2022/04/09 09:39:33;;;;;;;14.78;6.62;;;;;;;9.21;64.98;98997.38;1692577;83;26285;-78
2022/04/09 09:42:03;;;;;;;8.60;5.03;;;;;;;9.29;65.46;98998.95;1695186;82;25927;-78
2022/04/09 09:44:34;;;;;;;10.40;5.12;;;;;;;9.30;61.66;99004.07;1668837;85;32633;-78
2022/04/09 09:47:08;;;;;;;10.98;6.45;;;;;;;9.19;62.53;99011.98;1672867;85;25704;-78
2022/04/09 09:49:56;;;;;;;8.75;4.67;;;;;;;9.20;63.12;99022.44;1668132;85;26360;-78
2022/04/09 09:52:31;;;;;;;9.75;5.03;;;;;;;9.21;61.79;99029.95;1711764;82;25896;-78
2022/04/09 09:55:10;;;;;;;11.20;4.78;;;;;;;9.19;61.34;99033.35;1682433;84;26190;-78
2022/04/09 09:57:38;;;;;;;12.33;5.12;;;;;;;9.17;60.09;99042.89;1679507;84;27463;-78
2022/04/09 10:00:10;;;;;;;7.75;3.77;;;;;;;9.07;58.24;99057.75;1677630;85;26275;-78
2022/04/09 10:02:38;;;;;;;6.60;5.08;;;;;;;9.02;58.69;99053.59;1673458;85;25834;-77
2022/04/09 10:05:05;;;;;;;10.75;5.20;;;;;;;9.02;59.78;99046.41;1710213;83;25864;-78
2022/04/09 10:07:33;;;;;;;9.53;5.12;;;;;;;9.13;61.34;99050.25;1684094;84;25875;-78
2022/04/09 10:10:07;;;;;;;7.47;5.08;;;;;;;9.17;61.37;99053.58;1707896;83;27441;-79
2022/04/09 10:12:40;;;;;;;8.85;5.00;;;;;;;9.21;61.00;99060.16;1702950;83;25895;-77
2022/04/09 10:15:07;;;;;;;9.63;5.03;;;;;;;9.14;60.78;99067.38;1707492;83;25846;-77
2022/04/09 10:17:35;;;;;;;10.80;6.05;;;;;;;9.11;60.64;99069.68;1703652;83;26334;-78
2022/04/09 10:20:04;;;;;;;12.78;6.60;;;;;;;9.14;60.09;99077.24;1703964;83;25931;-78
2022/04/09 10:22:42;;;;;;;8.78;4.85;;;;;;;9.19;61.11;99082.27;1672837;85;27480;-78
2022/04/09 10:25:08;;;;;;;8.20;4.87;;;;;;;9.36;61.17;99091.92;1682019;84;25949;-78
2022/04/09 10:27:43;;;;;;;7.83;5.42;;;;;;;9.46;59.27;99092.77;1699742;83;25858;-78
2022/04/09 10:30:21;;;;;;;8.63;5.17;;;;;;;9.50;60.78;99085.95;1697343;83;26266;-78
2022/04/09 10:32:58;;;;;;;7.90;4.28;;;;;;;9.53;60.19;99090.88;1669955;84;25842;-79
2022/04/09 10:35:40;;;;;;;7.92;3.35;;;;;;;9.59;60.26;99099.36;1711861;83;27445;-78
2022/04/09 10:38:15;;;;;;;4.87;2.90;;;;;;;9.66;58.84;99098.80;1691729;84;25850;-78
2022/04/09 10:40:49;;;;;;;10.40;5.12;;;;;;;9.60;56.27;99117.84;1713115;83;25757;-79
2022/04/09 10:43:28;;;;;;;8.43;4.92;;;;;;;9.55;56.53;99119.03;1714995;83;26000;-78
2022/04/09 10:46:08;;;;;;;6.50;4.42;;;;;;;9.53;56.67;99119.77;1697777;83;25797;-78
2022/04/09 10:48:37;;;;;;;6.62;4.08;;;;;;;9.62;59.09;99129.17;1705897;83;27555;-78
2022/04/09 10:51:07;;;;;;;8.25;3.30;;;;;;;9.77;57.53;99124.84;1695668;84;25963;-78
2022/04/09 10:53:36;;;;;;;6.55;2.98;;;;;;;9.84;56.21;99124.25;1721668;83;25807;-78
2022/04/09 10:56:24;;;;;;;6.97;3.10;;;;;;;9.77;55.53;99127.52;1721606;83;26217;-78
2022/04/09 10:59:16;;;;;;;5.83;2.70;;;;;;;9.71;54.01;99141.22;1721428;82;26655;-79
2022/04/09 11:01:50;;;;;;;3.90;2.10;;;;;;;9.67;56.36;99146.70;1712358;83;27471;-78
2022/04/09 11:07:19;;;;;;;4.97;2.08;;;;;;;9.85;55.50;99141.95;1706146;83;26769;-78
2022/04/09 11:10:06;;;;;;;4.62;2.10;;;;;;;9.94;54.45;99146.80;1711649;83;25932;-78
2022/04/09 11:12:42;;;;;;;4.25;2.15;;;;;;;9.97;53.32;99147.72;1680706;84;25841;-78
2022/04/09 11:15:11;;;;;;;3.30;2.33;;;;;;;9.91;48.44;99153.11;1719530;82;28282;-78
2022/04/09 11:17:40;;;;;;;4.55;2.22;;;;;;;9.82;49.94;99169.94;1690172;83;26449;-76
2022/04/09 11:20:15;;;;;;;4.95;2.17;;;;;;;9.74;50.44;99172.88;1706093;83;25846;-76
2022/04/09 11:22:47;;;;;;;5.72;2.37;;;;;;;9.78;52.43;99176.77;1706077;83;25866;-76
2022/04/09 11:25:27;;;;;;;5.25;2.40;;;;;;;9.87;51.03;99175.47;1706152;83;26347;-76
2022/04/09 11:28:19;;;;;;;6.97;2.65;;;;;;;9.85;48.71;99176.20;1705326;83;27534;-76
2022/04/09 11:31:00;;;;;;;4.00;2.87;;;;;;;9.78;47.41;99188.80;1700269;83;25846;-76
2022/04/09 11:33:26;;;;;;;;;;;;;;;9.82;48.81;99190.00;1710607;82;25906;-76
2022/04/09 11:35:53;;;;;;;5.05;2.92;;;;;;;9.84;48.21;99192.45;1697814;83;25772;-76
2022/04/09 11:38:26;;;;;;;6.85;3.80;;;;;;;9.83;49.78;99197.00;1717244;82;25725;-76
2022/04/09 11:40:55;;;;;;;5.03;3.37;;;;;;;9.84;49.29;99194.61;1707537;83;27465;-76
2022/04/09 11:43:23;;;;;;;3.20;2.83;;;;;;;9.82;49.53;99187.83;1695385;84;26633;-76